Time;durP1;ratioP1;P1;durP2;ratioP2;P2;SDS_P1;SDS_P2;PMS_P1;PMS_P2;Temp;Humidity;BMP_temperature;BMP_pressure;BME280_temperature;BME280_humidity;BME280_pressure;Samples;Min_cycle;Max_cycle;Signal;HPM_P1;HPM_P2
2021/07/20 00:00:07;;;;;;;9.70;5.43;;;;;;;29.19;47.98;99334.84;4483361;32;33853;-62
2021/07/20 00:03:02;;;;;;;11.60;6.30;;;;;;;29.19;47.98;99334.84;4483573;32;34403;-62
2021/07/20 00:05:31;;;;;;;9.55;5.62;;;;;;;29.21;48.00;99336.25;4481732;31;33507;-62
2021/07/20 00:08:00;;;;;;;10.52;5.75;;;;;;;29.20;47.92;99331.84;4483533;32;34225;-63
2021/07/20 00:10:29;;;;;;;8.65;5.57;;;;;;;29.18;47.94;99328.53;4483308;32;33800;-63
2021/07/20 00:12:57;;;;;;;8.13;5.60;;;;;;;29.19;47.97;99332.09;4483491;32;34298;-62
2021/07/20 00:15:24;;;;;;;9.88;5.70;;;;;;;29.20;47.93;99334.59;4483356;32;33882;-63
2021/07/20 00:17:53;;;;;;;13.68;6.37;;;;;;;29.19;48.00;99332.09;4483206;32;34077;-62
2021/07/20 00:20:21;;;;;;;11.82;6.07;;;;;;;29.18;47.94;99331.28;4483447;32;34574;-63
2021/07/20 00:22:49;;;;;;;9.15;6.15;;;;;;;29.18;47.88;99338.72;4483060;32;33507;-63
2021/07/20 00:25:16;;;;;;;8.10;5.70;;;;;;;29.17;47.92;99335.12;4482939;32;33924;-62
2021/07/20 00:27:44;;;;;;;10.18;6.28;;;;;;;29.19;47.87;99337.59;4483408;32;34854;-63
2021/07/20 00:30:14;;;;;;;9.63;5.93;;;;;;;29.19;47.91;99338.47;4483156;32;34116;-63
2021/07/20 00:32:42;;;;;;;10.60;6.57;;;;;;;29.17;47.89;99332.41;4483153;32;33198;-62
2021/07/20 00:35:10;;;;;;;14.80;5.68;;;;;;;29.18;47.81;99334.03;4482983;32;34068;-62
2021/07/20 00:37:38;;;;;;;10.75;6.03;;;;;;;29.17;47.89;99335.12;4481790;32;33766;-63
2021/07/20 00:40:08;;;;;;;8.07;5.40;;;;;;;29.17;47.85;99334.31;4482796;32;34531;-62
2021/07/20 00:42:36;;;;;;;9.65;5.78;;;;;;;29.16;47.88;99328.00;4483111;32;33882;-63
2021/07/20 00:45:04;;;;;;;9.85;5.80;;;;;;;29.19;47.88;99337.59;4484819;32;33916;-63
2021/07/20 00:47:32;;;;;;;11.30;6.20;;;;;;;29.17;47.89;99335.12;4484858;31;34183;-63
2021/07/20 00:50:00;;;;;;;9.80;5.40;;;;;;;29.17;47.90;99337.87;4485070;32;34276;-64
2021/07/20 00:52:30;;;;;;;10.52;5.90;;;;;;;29.18;47.88;99335.97;4485290;32;33720;-64
2021/07/20 00:54:58;;;;;;;11.80;6.35;;;;;;;29.18;47.77;99331.28;4485347;32;34210;-63
2021/07/20 00:57:28;;;;;;;14.50;5.97;;;;;;;29.17;47.63;99326.91;4471282;32;33742;-64
2021/07/20 00:59:56;;;;;;;10.07;6.07;;;;;;;29.18;47.76;99328.53;4484013;32;33935;-64
2021/07/20 01:02:25;;;;;;;15.05;5.80;;;;;;;29.18;47.83;99325.78;4471071;32;33392;-63
2021/07/20 01:04:53;;;;;;;11.30;6.12;;;;;;;29.17;47.61;99329.66;4484213;32;34028;-63
2021/07/20 01:07:22;;;;;;;11.48;6.10;;;;;;;29.17;47.52;99323.34;4484955;32;34071;-62
2021/07/20 01:09:49;;;;;;;8.60;5.82;;;;;;;29.15;47.52;99329.13;4484090;32;33971;-63
2021/07/20 01:12:17;;;;;;;10.65;5.82;;;;;;;29.15;47.67;99331.84;4470410;32;33677;-62
2021/07/20 01:14:45;;;;;;;12.20;6.30;;;;;;;29.15;47.66;99331.84;4470762;32;34559;-63
2021/07/20 01:17:13;;;;;;;13.18;6.50;;;;;;;29.15;47.74;99325.53;4484967;32;34013;-63
2021/07/20 01:19:50;;;;;;;10.27;6.20;;;;;;;29.15;47.71;99331.03;4475070;32;34159;-64
2021/07/20 01:22:25;;;;;;;12.75;6.15;;;;;;;29.16;47.69;99332.69;4468118;32;34221;-63
2021/07/20 01:24:53;;;;;;;14.48;6.68;;;;;;;29.15;47.66;99331.03;4468265;32;33983;-64
2021/07/20 01:27:20;;;;;;;10.60;5.82;;;;;;;29.14;47.65;99321.13;4476955;32;34081;-63
2021/07/20 01:29:49;;;;;;;10.85;5.95;;;;;;;29.14;47.67;99321.94;4484741;32;34830;-63
2021/07/20 01:32:17;;;;;;;12.13;6.30;;;;;;;29.14;47.56;99319.19;4470893;32;33566;-63
2021/07/20 01:34:46;;;;;;;10.35;6.05;;;;;;;29.14;47.52;99323.88;4471072;32;35273;-63
2021/07/20 01:37:13;;;;;;;10.90;6.05;;;;;;;29.14;47.50;99319.19;4483756;32;33660;-63
2021/07/20 01:39:43;;;;;;;11.20;6.53;;;;;;;29.14;47.49;99318.38;4471082;32;34063;-63
2021/07/20 01:42:11;;;;;;;9.48;6.15;;;;;;;29.14;47.54;99316.44;4471138;32;33511;-63
2021/07/20 01:44:38;;;;;;;8.32;5.90;;;;;;;29.14;47.38;99316.44;4470836;32;33510;-63
2021/07/20 01:47:06;;;;;;;11.02;5.85;;;;;;;29.14;47.33;99310.13;4483409;31;34043;-62
2021/07/20 01:49:34;;;;;;;9.27;6.20;;;;;;;29.12;47.45;99310.44;4483622;32;33783;-63
2021/07/20 01:52:02;;;;;;;8.73;6.43;;;;;;;29.12;47.44;99304.94;4470950;32;33411;-63
2021/07/20 01:54:32;;;;;;;13.50;6.12;;;;;;;29.13;47.50;99306.56;4483552;32;33880;-62
2021/07/20 01:56:59;;;;;;;10.68;6.30;;;;;;;29.14;47.46;99304.66;4470711;32;33969;-63
2021/07/20 01:59:27;;;;;;;8.35;6.05;;;;;;;29.14;47.45;99312.88;4485038;32;34056;-63
2021/07/20 02:10:02;;;;;;;9.75;6.55;;;;;;;29.12;47.34;99299.44;4483597;32;33885;-64
2021/07/20 02:12:34;;;;;;;9.50;6.03;;;;;;;29.10;47.36;99295.31;4483323;32;33562;-63
2021/07/20 02:15:03;;;;;;;10.00;5.90;;;;;;;29.10;47.32;99292.56;4483708;32;34710;-64
2021/07/20 02:17:32;;;;;;;10.35;6.07;;;;;;;29.10;47.30;99287.91;4484876;32;33937;-64
2021/07/20 02:20:22;;;;;;;9.77;6.83;;;;;;;29.11;47.23;99300.53;4473672;32;34552;-64
2021/07/20 02:22:58;;;;;;;12.50;6.22;;;;;;;29.11;47.28;99299.72;4484844;32;33422;-64
2021/07/20 02:25:27;;;;;;;9.82;6.03;;;;;;;29.10;47.38;99296.16;4484865;32;34471;-64
2021/07/20 02:27:57;;;;;;;10.45;6.40;;;;;;;29.09;47.48;99299.97;4483539;32;33991;-63
2021/07/20 02:30:25;;;;;;;10.82;6.40;;;;;;;29.09;47.54;99290.91;4483354;32;34192;-64
2021/07/20 02:32:53;;;;;;;9.15;6.18;;;;;;;29.08;47.59;99298.34;4484734;32;34483;-64
2021/07/20 02:35:22;;;;;;;9.48;6.45;;;;;;;29.08;47.60;99295.59;4470510;32;33999;-62
2021/07/20 02:37:51;;;;;;;13.68;6.43;;;;;;;29.09;47.62;99299.16;4483264;32;34776;-63
2021/07/20 02:40:22;;;;;;;11.13;6.53;;;;;;;29.10;47.45;99289.81;4484429;32;34016;-64
2021/07/20 02:42:51;;;;;;;8.85;6.10;;;;;;;29.11;47.43;99291.47;4470677;32;34208;-64
2021/07/20 02:45:18;;;;;;;13.50;6.87;;;;;;;29.08;47.54;99292.84;4474124;32;83228;-64
2021/07/20 02:47:48;;;;;;;10.98;6.37;;;;;;;29.10;47.54;99290.66;4478263;32;33583;-64
2021/07/20 02:50:18;;;;;;;10.13;6.60;;;;;;;29.08;47.54;99287.34;4483222;32;34191;-64
2021/07/20 02:52:47;;;;;;;8.60;6.25;;;;;;;29.07;47.45;99291.22;4470558;32;33791;-64
2021/07/20 02:55:17;;;;;;;11.30;5.80;;;;;;;29.09;47.44;99288.16;4470539;32;34926;-63
2021/07/20 02:57:48;;;;;;;8.95;6.57;;;;;;;29.10;47.29;99298.06;4483206;32;34043;-64
2021/07/20 03:00:17;;;;;;;8.98;6.00;;;;;;;29.09;47.30;99293.66;4470574;32;34092;-64
2021/07/20 03:02:46;;;;;;;10.07;6.27;;;;;;;29.08;47.32;99286.53;4484290;32;33391;-64
2021/07/20 03:05:14;;;;;;;9.98;6.40;;;;;;;29.10;47.20;99295.31;4483019;32;34698;-64
2021/07/20 03:07:46;;;;;;;7.93;6.00;;;;;;;29.09;47.16;99291.75;4482554;32;34858;-64
2021/07/20 03:10:15;;;;;;;9.52;6.35;;;;;;;29.07;47.11;99293.94;4484147;32;33938;-64
2021/07/20 03:12:44;;;;;;;9.13;6.03;;;;;;;29.08;47.14;99292.84;4470298;32;33542;-64
2021/07/20 03:15:12;;;;;;;11.02;7.00;;;;;;;29.07;47.17;99296.69;4484205;32;34824;-64
2021/07/20 03:17:40;;;;;;;9.52;6.28;;;;;;;29.08;47.15;99303.84;4484014;32;34889;-64
2021/07/20 03:20:12;;;;;;;10.35;5.65;;;;;;;29.09;46.95;99297.22;4483163;32;34042;-64
2021/07/20 03:22:40;;;;;;;12.10;6.43;;;;;;;29.08;47.01;99303.00;4484203;32;33749;-64
2021/07/20 03:25:09;;;;;;;10.23;6.40;;;;;;;29.08;47.05;99297.53;4470171;32;33889;-64
2021/07/20 03:27:37;;;;;;;10.35;6.37;;;;;;;29.06;47.01;99297.81;4484305;32;34215;-64
2021/07/20 03:30:09;;;;;;;10.95;6.50;;;;;;;29.07;47.10;99304.12;4482980;32;34607;-64
2021/07/20 03:32:38;;;;;;;8.48;6.25;;;;;;;29.06;47.00;99300.56;4482602;32;34377;-64
2021/07/20 03:35:06;;;;;;;9.15;6.37;;;;;;;29.07;47.06;99301.38;4470438;32;34121;-64
2021/07/20 03:37:34;;;;;;;11.55;6.07;;;;;;;29.06;47.07;99306.03;4484256;32;34236;-63
2021/07/20 03:40:03;;;;;;;9.75;6.37;;;;;;;29.07;46.96;99307.69;4483855;32;33745;-64
2021/07/20 03:42:31;;;;;;;;;;;;;;;29.07;46.85;99312.34;4483315;32;34275;-63
2021/07/20 03:44:59;;;;;;;9.73;6.12;;;;;;;29.18;46.50;99308.50;4482405;32;34179;-64
2021/07/20 03:47:27;;;;;;;10.23;6.12;;;;;;;29.09;46.58;99308.22;4469825;32;35643;-63
2021/07/20 03:49:55;;;;;;;11.57;6.82;;;;;;;29.06;46.75;99308.78;4482886;32;34359;-64
2021/07/20 03:52:23;;;;;;;11.00;7.20;;;;;;;29.05;46.58;99304.41;4482576;32;34209;-64
2021/07/20 03:54:50;;;;;;;10.80;6.50;;;;;;;29.05;46.74;99307.16;4482825;32;33929;-64
2021/07/20 03:57:20;;;;;;;9.38;6.60;;;;;;;29.04;46.70;99316.47;4483761;32;34277;-63
2021/07/20 03:59:49;;;;;;;;;;;;;;;29.05;46.81;99317.28;4482649;32;34127;-64
2021/07/20 04:02:21;;;;;;;10.48;6.53;;;;;;;29.15;46.61;99325.53;4482660;32;33458;-64
2021/07/20 04:04:51;;;;;;;9.60;6.15;;;;;;;29.08;46.61;99319.50;4470066;32;33428;-64
2021/07/20 04:07:19;;;;;;;10.88;6.65;;;;;;;29.04;46.75;99318.41;4469624;32;33963;-63
2021/07/20 04:09:51;;;;;;;8.68;6.55;;;;;;;29.03;46.77;99325.81;4482357;32;34038;-64
2021/07/20 04:12:21;;;;;;;11.63;6.87;;;;;;;29.02;46.73;99326.09;4469516;32;33815;-64
2021/07/20 04:14:49;;;;;;;12.65;7.05;;;;;;;29.01;46.65;99330.78;4482195;32;33861;-64
2021/07/20 04:17:17;;;;;;;11.82;6.95;;;;;;;29.02;46.69;99335.16;4482442;32;33948;-64
2021/07/20 04:19:45;;;;;;;12.75;7.32;;;;;;;29.02;46.60;99337.09;4461388;32;34588;-64
2021/07/20 04:22:14;;;;;;;13.30;7.12;;;;;;;29.00;46.66;99337.34;4468893;32;33445;-64
2021/07/20 04:24:43;;;;;;;9.18;7.00;;;;;;;29.01;46.59;99336.25;4470083;32;34081;-64
2021/07/20 04:27:10;;;;;;;9.70;7.03;;;;;;;29.01;46.59;99336.25;4469775;32;33605;-64
2021/07/20 04:29:39;;;;;;;9.48;6.45;;;;;;;29.01;46.67;99339.00;4455942;32;34589;-64
2021/07/20 04:32:07;;;;;;;10.93;7.70;;;;;;;29.01;46.64;99328.03;4468782;32;33461;-63
2021/07/20 04:34:35;;;;;;;11.15;7.12;;;;;;;29.00;46.65;99328.28;4469715;32;34715;-64
2021/07/20 04:37:05;;;;;;;13.18;7.25;;;;;;;28.99;46.65;99327.47;4469929;32;33337;-64
2021/07/20 04:39:35;;;;;;;10.30;7.85;;;;;;;28.97;46.69;99333.25;4469872;32;33949;-64
2021/07/20 04:42:03;;;;;;;9.82;7.12;;;;;;;28.99;46.62;99335.69;4469804;32;33153;-64
2021/07/20 04:44:31;;;;;;;12.32;7.82;;;;;;;29.00;46.62;99339.25;4469475;32;33887;-64
2021/07/20 04:47:00;;;;;;;12.68;7.32;;;;;;;28.99;46.61;99338.44;4468347;32;34356;-64
2021/07/20 04:49:28;;;;;;;10.82;7.90;;;;;;;28.99;46.73;99343.94;4469573;32;33873;-64
2021/07/20 04:51:57;;;;;;;13.23;7.18;;;;;;;28.98;46.66;99356.03;4468604;32;34538;-64
2021/07/20 04:54:25;;;;;;;9.43;7.80;;;;;;;29.00;46.66;99355.75;4468521;32;34908;-64
2021/07/20 04:56:53;;;;;;;8.75;6.80;;;;;;;28.97;46.63;99354.38;4469714;32;34010;-64
2021/07/20 04:59:22;;;;;;;13.45;8.43;;;;;;;28.97;46.69;99362.63;4455820;32;34345;-64
2021/07/20 05:01:49;;;;;;;11.90;7.62;;;;;;;28.97;46.65;99365.38;4468276;32;33905;-64
2021/07/20 05:04:18;;;;;;;12.93;7.80;;;;;;;28.97;46.59;99362.63;4468511;32;33934;-64
2021/07/20 05:06:47;;;;;;;10.27;8.27;;;;;;;28.97;46.58;99365.38;4469520;32;33574;-64
2021/07/20 05:09:15;;;;;;;12.60;8.52;;;;;;;28.96;46.49;99359.06;4468287;32;34030;-64
2021/07/20 05:11:42;;;;;;;13.45;7.85;;;;;;;28.96;46.51;99363.72;4455336;32;33164;-64
2021/07/20 05:14:13;;;;;;;14.50;8.60;;;;;;;28.95;46.58;99359.31;4455681;32;33977;-64
2021/07/20 05:16:41;;;;;;;12.10;8.10;;;;;;;28.96;46.42;99369.22;4468180;32;34947;-64
2021/07/20 05:19:10;;;;;;;16.48;8.38;;;;;;;28.94;46.45;99366.69;4474718;32;34404;-64
2021/07/20 05:21:39;;;;;;;11.15;8.18;;;;;;;28.96;46.63;99363.72;4485291;32;33470;-64
2021/07/20 05:24:07;;;;;;;12.93;7.90;;;;;;;28.96;46.56;99369.22;4483932;32;35136;-64
2021/07/20 05:26:36;;;;;;;13.90;8.95;;;;;;;28.96;46.57;99370.03;4485008;32;34448;-64
2021/07/20 05:29:04;;;;;;;14.27;8.30;;;;;;;28.97;46.47;99376.34;4483716;32;34635;-63
2021/07/20 05:31:36;;;;;;;11.70;8.85;;;;;;;28.97;46.56;99377.19;4471160;32;33448;-64
2021/07/20 05:34:03;;;;;;;14.15;9.27;;;;;;;28.97;46.55;99376.34;4470828;32;33230;-64
2021/07/20 05:36:32;;;;;;;12.37;8.68;;;;;;;28.98;46.40;99386.25;4471032;32;34908;-63
2021/07/20 05:39:00;;;;;;;11.80;8.80;;;;;;;28.98;46.37;99387.06;4485183;32;34727;-63
2021/07/20 05:41:30;;;;;;;13.13;9.30;;;;;;;28.98;46.34;99384.31;4485038;32;33109;-63
2021/07/20 05:43:58;;;;;;;24.17;9.07;;;;;;;28.98;46.40;99391.72;4484942;32;34143;-62
2021/07/20 05:46:26;;;;;;;13.57;9.95;;;;;;;28.96;46.28;99394.75;4485031;32;34269;-62
2021/07/20 05:48:56;;;;;;;12.90;9.48;;;;;;;28.97;46.28;99390.91;4471105;32;34304;-62
2021/07/20 05:51:24;;;;;;;13.43;8.60;;;;;;;28.97;46.14;99392.84;4484894;32;33710;-64
2021/07/20 05:53:54;;;;;;;;;;;;;;;28.96;46.21;99396.69;4471618;32;34029;-64
2021/07/20 05:56:37;;;;;;;10.20;8.57;;;;;;;29.08;45.84;99390.91;4483964;32;32685;-64
2021/07/20 05:59:05;;;;;;;12.90;9.30;;;;;;;28.99;46.12;99398.87;4483829;32;33974;-64
2021/07/20 06:01:33;;;;;;;12.50;9.68;;;;;;;28.97;46.27;99398.34;4483774;32;33707;-64
2021/07/20 06:04:02;;;;;;;14.75;9.40;;;;;;;28.96;46.26;99399.44;4470787;32;34746;-64
2021/07/20 06:06:29;;;;;;;12.98;9.30;;;;;;;28.95;46.29;99400.50;4483430;32;34005;-64
2021/07/20 06:08:59;;;;;;;11.70;9.38;;;;;;;28.94;46.31;99405.16;4483456;32;34607;-64
2021/07/20 06:11:27;;;;;;;12.10;9.98;;;;;;;28.94;46.34;99407.06;4484688;32;34252;-62
2021/07/20 06:13:54;;;;;;;13.73;9.93;;;;;;;28.94;46.24;99401.59;4470405;32;34711;-64
2021/07/20 06:16:22;;;;;;;13.65;9.88;;;;;;;28.95;46.32;99414.25;4483413;32;34310;-64
2021/07/20 06:18:51;;;;;;;15.88;9.75;;;;;;;28.96;46.26;99407.69;4484662;32;34111;-64
2021/07/20 06:21:20;;;;;;;18.50;9.90;;;;;;;28.95;46.22;99408.75;4483379;32;32966;-64
2021/07/20 06:23:48;;;;;;;21.00;10.05;;;;;;;28.96;46.26;99410.41;4484649;32;34361;-62
2021/07/20 06:26:21;;;;;;;16.45;9.55;;;;;;;28.95;46.18;99406.81;4483443;32;34832;-64
2021/07/20 06:28:48;;;;;;;14.18;10.32;;;;;;;28.95;46.16;99411.50;4484667;32;33492;-64
2021/07/20 06:31:17;;;;;;;15.18;9.23;;;;;;;28.95;46.15;99404.06;4483024;32;33484;-63
2021/07/20 06:33:46;;;;;;;13.73;9.82;;;;;;;28.95;46.21;99406.00;4483240;32;34724;-64
2021/07/20 06:36:16;;;;;;;13.93;10.70;;;;;;;28.94;46.14;99407.91;4484537;32;33867;-64
2021/07/20 06:38:44;;;;;;;16.90;10.60;;;;;;;28.95;46.12;99403.25;4484365;32;34302;-64
2021/07/20 06:41:17;;;;;;;23.15;11.25;;;;;;;28.94;46.29;99393.34;4470060;32;33681;-64
2021/07/20 06:43:45;;;;;;;16.70;11.18;;;;;;;28.94;46.08;99401.59;4483166;32;34019;-65
2021/07/20 06:46:13;;;;;;;14.30;9.82;;;;;;;28.93;46.08;99406.25;4482957;31;33963;-64
2021/07/20 06:48:44;;;;;;;16.30;9.80;;;;;;;28.93;46.04;99406.25;4483034;32;34192;-64
2021/07/20 06:51:12;;;;;;;13.13;9.90;;;;;;;28.93;46.07;99413.66;4483113;32;33504;-64
2021/07/20 06:53:39;;;;;;;19.23;10.27;;;;;;;28.92;46.00;99406.53;4484410;32;33933;-64
2021/07/20 06:56:07;;;;;;;16.10;11.27;;;;;;;28.93;45.96;99413.66;4484080;32;34835;-64
2021/07/20 06:58:35;;;;;;;15.55;10.02;;;;;;;28.92;45.88;99417.53;4483254;32;34113;-64
2021/07/20 07:01:03;;;;;;;16.45;10.25;;;;;;;28.91;45.75;99413.97;4457126;32;32336;-64
2021/07/20 07:03:40;;;;;;;16.35;10.20;;;;;;;28.89;45.78;99410.62;4484091;32;33941;-64
2021/07/20 07:06:07;;;;;;;15.10;10.43;;;;;;;28.91;45.75;99413.09;4484034;32;34300;-64
2021/07/20 07:08:35;;;;;;;14.13;10.57;;;;;;;28.90;45.79;99412.28;4470325;32;34338;-64
2021/07/20 07:11:10;;;;;;;13.45;10.82;;;;;;;28.90;45.78;99411.47;4470816;32;33474;-64
2021/07/20 07:13:38;;;;;;;12.50;10.75;;;;;;;28.91;45.73;99411.22;4484216;32;33223;-64
2021/07/20 07:16:05;;;;;;;13.07;10.40;;;;;;;28.91;45.70;99413.09;4482922;32;34756;-64
2021/07/20 07:18:33;;;;;;;14.52;9.63;;;;;;;28.91;45.72;99415.84;4484105;32;33905;-64
2021/07/20 07:21:01;;;;;;;14.82;10.63;;;;;;;28.92;45.77;99431.25;4482584;32;33676;-64
2021/07/20 07:23:28;;;;;;;16.55;11.35;;;;;;;28.91;45.75;99429.59;4469815;32;34439;-65
2021/07/20 07:25:58;;;;;;;13.15;10.52;;;;;;;28.92;45.70;99423.00;4482672;32;34772;-64
2021/07/20 07:28:26;;;;;;;14.77;10.35;;;;;;;28.92;45.65;99434.00;4470191;32;33850;-64
2021/07/20 07:30:54;;;;;;;14.90;11.05;;;;;;;28.93;45.57;99432.91;4469334;32;34244;-64
2021/07/20 07:33:23;;;;;;;15.15;11.27;;;;;;;28.92;45.48;99426.59;4469738;32;34146;-64
2021/07/20 07:35:50;;;;;;;13.68;10.38;;;;;;;28.93;45.56;99422.72;4480117;32;34242;-64
2021/07/20 07:38:18;;;;;;;13.82;10.38;;;;;;;28.93;45.40;99422.72;4482769;31;33713;-64
2021/07/20 07:40:51;;;;;;;15.30;11.27;;;;;;;28.94;45.46;99424.38;4495063;31;32114;-64
2021/07/20 07:43:20;;;;;;;14.05;10.85;;;;;;;28.93;45.46;99424.66;4483561;32;34843;-64
2021/07/20 07:45:51;;;;;;;13.93;11.35;;;;;;;28.93;45.32;99427.41;4482175;32;34502;-64
2021/07/20 07:48:19;;;;;;;12.43;10.68;;;;;;;28.92;45.31;99437.56;4483446;32;34665;-64
2021/07/20 07:50:48;;;;;;;15.20;11.55;;;;;;;28.92;45.22;99429.34;4469054;32;34419;-64
2021/07/20 07:53:15;;;;;;;14.57;10.80;;;;;;;28.91;45.17;99435.06;4461852;32;33701;-64
2021/07/20 07:55:43;;;;;;;13.57;11.18;;;;;;;28.92;45.15;99436.75;4471462;32;34608;-64
2021/07/20 07:58:11;;;;;;;15.50;10.93;;;;;;;28.92;45.08;99437.56;4458757;32;33482;-64
2021/07/20 08:00:39;;;;;;;14.30;10.93;;;;;;;28.90;45.09;99434.25;4471662;32;34445;-64
2021/07/20 08:03:07;;;;;;;14.80;11.73;;;;;;;28.92;45.07;99440.31;4472504;32;33988;-65
2021/07/20 08:05:35;;;;;;;13.73;11.20;;;;;;;28.93;45.02;99435.66;4471482;32;34168;-64
2021/07/20 08:08:06;;;;;;;15.13;11.93;;;;;;;28.93;44.96;99443.88;4471609;32;33510;-66
2021/07/20 08:10:34;;;;;;;19.20;11.48;;;;;;;28.92;45.02;99443.06;4471648;32;33450;-65
2021/07/20 08:13:06;;;;;;;20.08;12.43;;;;;;;28.94;45.12;99440.84;4472634;32;34953;-68
2021/07/20 08:15:33;;;;;;;16.30;11.80;;;;;;;28.95;44.22;99441.72;4471316;32;34022;-67
2021/07/20 08:18:01;;;;;;;22.00;12.30;;;;;;;28.92;44.01;99448.56;4472910;32;34766;-66
2021/07/20 08:20:28;;;;;;;19.15;12.90;;;;;;;28.90;43.89;99437.00;4474006;32;33691;-65
2021/07/20 08:22:56;;;;;;;17.90;13.15;;;;;;;28.88;43.64;99444.69;4474023;32;33893;-66
2021/07/20 08:25:39;;;;;;;15.38;12.80;;;;;;;28.86;43.81;99446.06;4487198;32;34589;-68
2021/07/20 08:28:12;;;;;;;20.55;12.82;;;;;;;28.84;43.68;99446.34;4488030;32;33844;-66
2021/07/20 08:30:41;;;;;;;16.62;13.00;;;;;;;28.81;43.94;99435.06;4474261;32;32803;-68
2021/07/20 08:33:17;;;;;;;15.18;12.35;;;;;;;28.79;44.03;99440.84;4474057;32;34001;-66
2021/07/20 08:35:45;;;;;;;15.52;11.93;;;;;;;28.80;44.02;99436.97;4486752;32;34626;-67
2021/07/20 08:38:13;;;;;;;15.85;12.85;;;;;;;28.77;43.90;99433.94;4486972;32;33888;-67
2021/07/20 08:40:49;;;;;;;16.27;12.32;;;;;;;28.77;43.75;99440.25;4473817;32;33808;-67
2021/07/20 08:44:09;;;;;;;16.73;12.25;;;;;;;28.76;43.88;99441.38;4487877;32;33919;-68
2021/07/20 08:46:45;;;;;;;14.68;12.20;;;;;;;28.77;43.60;99442.19;4453113;31;34860;-67
2021/07/20 08:49:35;;;;;;;17.58;12.48;;;;;;;28.73;43.52;99445.50;4487698;32;33795;-68
2021/07/20 08:52:09;;;;;;;17.73;12.10;;;;;;;28.71;43.54;99446.84;4486651;32;33963;-68
2021/07/20 08:54:42;;;;;;;18.33;13.23;;;;;;;28.69;43.21;99454.53;4486822;32;33965;-67
2021/07/20 08:57:11;;;;;;;16.30;13.02;;;;;;;28.60;43.25;99448.75;4486241;32;34136;-68
2021/07/20 08:59:49;;;;;;;20.30;13.65;;;;;;;28.62;43.47;99449.28;4473797;32;33950;-68
2021/07/20 09:02:28;;;;;;;21.52;13.48;;;;;;;28.56;43.28;99444.87;4486473;32;33514;-69
2021/07/20 09:05:02;;;;;;;14.52;12.90;;;;;;;28.63;43.00;99450.97;4484310;32;33948;-68
2021/07/20 09:07:45;;;;;;;15.40;12.98;;;;;;;28.61;43.38;99450.38;4483562;32;34812;-67
2021/07/20 09:10:13;;;;;;;16.80;13.02;;;;;;;28.63;43.26;99445.47;4471561;32;33907;-66
2021/07/20 09:12:43;;;;;;;14.40;12.15;;;;;;;28.62;43.64;99445.72;4484716;32;33685;-69
2021/07/20 09:15:11;;;;;;;;;;;;;;;28.63;43.75;99450.97;4484251;32;34633;-68
2021/07/20 09:18:09;;;;;;;17.12;14.18;;;;;;;28.76;43.41;99448.78;4483411;32;35033;-69
2021/07/20 09:20:37;;;;;;;15.80;12.63;;;;;;;28.70;43.64;99454.25;4484570;32;33607;-68
2021/07/20 09:23:32;;;;;;;14.45;12.23;;;;;;;28.65;43.84;99445.19;4483465;32;33529;-68
2021/07/20 09:26:09;;;;;;;15.32;13.20;;;;;;;28.69;43.84;99440.81;4479825;32;33862;-68
2021/07/20 09:28:54;;;;;;;19.62;13.23;;;;;;;28.67;43.93;99446.56;4471052;32;34859;-68
2021/07/20 09:31:45;;;;;;;16.92;13.35;;;;;;;28.66;43.49;99444.09;4455465;32;34071;-68
2021/07/20 09:34:57;;;;;;;20.08;14.02;;;;;;;28.67;43.66;99443.81;4471202;31;34185;-69
2021/07/20 09:37:33;;;;;;;19.40;13.32;;;;;;;28.69;43.67;99446.31;4500205;31;34589;-68
2021/07/20 09:40:11;;;;;;;16.73;14.25;;;;;;;28.64;43.17;99441.62;4487373;31;34543;-68
2021/07/20 09:42:39;;;;;;;19.20;14.07;;;;;;;28.66;42.68;99442.16;4500207;31;34620;-69
2021/07/20 09:45:06;;;;;;;18.12;14.77;;;;;;;28.64;42.41;99441.62;4500208;31;33508;-68
2021/07/20 09:47:43;;;;;;;18.62;14.68;;;;;;;28.65;42.34;99439.69;4500138;31;33514;-68
2021/07/20 09:50:17;;;;;;;17.95;14.55;;;;;;;28.63;42.56;99445.47;4499195;31;34727;-65
2021/07/20 09:53:03;;;;;;;21.95;15.05;;;;;;;28.66;42.68;99446.84;4500247;31;33888;-68
2021/07/20 09:55:46;;;;;;;17.87;14.70;;;;;;;28.70;42.67;99439.72;4499978;31;33945;-68
2021/07/20 09:58:28;;;;;;;15.35;13.73;;;;;;;28.69;42.72;99436.13;4499529;31;33872;-65
2021/07/20 10:01:22;;;;;;;18.23;14.18;;;;;;;28.67;43.20;99432.00;4500195;31;34092;-68
2021/07/20 10:04:08;;;;;;;18.83;14.77;;;;;;;28.69;43.21;99440.81;4499343;31;34681;-69
2021/07/20 10:06:52;;;;;;;15.30;13.55;;;;;;;28.69;43.06;99430.66;4500398;31;33818;-68
2021/07/20 10:09:38;;;;;;;;;;;;;;;28.70;43.23;99426.81;4499678;31;34020;-69
2021/07/20 10:12:09;;;;;;;19.92;14.27;;;;;;;28.79;43.25;99424.34;4500668;31;34298;-68
2021/07/20 10:14:43;;;;;;;18.73;13.40;;;;;;;28.71;43.49;99420.22;4486197;31;33773;-67
2021/07/20 10:17:22;;;;;;;22.85;14.02;;;;;;;28.71;43.79;99425.69;4497852;31;33520;-67
2021/07/20 10:20:05;;;;;;;20.40;13.98;;;;;;;28.70;43.76;99429.56;4479281;31;33945;-66
2021/07/20 10:22:44;;;;;;;18.52;13.90;;;;;;;28.71;43.64;99425.69;4493409;31;33590;-67
2021/07/20 10:25:23;;;;;;;23.35;14.50;;;;;;;28.75;43.35;99409.50;4488384;31;34123;-65
2021/07/20 10:28:01;;;;;;;17.17;13.88;;;;;;;28.75;42.65;99414.19;4470195;32;33455;-67
2021/07/20 10:30:29;;;;;;;17.02;13.57;;;;;;;28.69;42.27;99416.94;4484066;32;33887;-66
2021/07/20 10:33:11;;;;;;;19.70;15.05;;;;;;;28.72;42.02;99416.41;4484324;32;34521;-67
2021/07/20 10:35:40;;;;;;;17.90;14.85;;;;;;;28.74;41.88;99416.13;4470472;32;33695;-67
2021/07/20 10:38:10;;;;;;;22.27;15.30;;;;;;;28.73;41.89;99417.22;4482258;32;33175;-65
2021/07/20 10:40:37;;;;;;;;;;;;;;;28.75;42.01;99416.94;4481075;32;32450;-68
2021/07/20 10:43:27;;;;;;;19.33;14.85;;;;;;;28.86;41.75;99410.34;4483135;32;35149;-67
2021/07/20 10:45:54;;;;;;;17.15;13.75;;;;;;;28.83;42.19;99406.25;4481881;32;34613;-68
2021/07/20 10:48:24;;;;;;;17.40;15.13;;;;;;;28.77;42.37;99410.06;4484166;32;33569;-67
2021/07/20 10:50:53;;;;;;;17.60;13.98;;;;;;;28.75;42.43;99394.97;4476726;32;34002;-68
2021/07/20 10:53:24;;;;;;;18.77;14.82;;;;;;;28.78;42.64;99405.41;4482758;32;33631;-68
2021/07/20 10:55:52;;;;;;;17.37;14.13;;;;;;;28.77;42.51;99399.06;4482689;32;34276;-68
2021/07/20 10:58:28;;;;;;;21.80;14.02;;;;;;;28.78;42.46;99411.72;4483683;32;33670;-68
2021/07/20 11:01:02;;;;;;;16.20;13.27;;;;;;;28.78;42.67;99402.69;4480341;32;34153;-66
2021/07/20 11:03:40;;;;;;;16.12;13.93;;;;;;;28.75;42.49;99401.28;4474679;32;33729;-68
2021/07/20 11:06:10;;;;;;;19.60;13.95;;;;;;;28.79;42.55;99393.34;4474894;31;34685;-66
2021/07/20 11:08:44;;;;;;;16.83;14.23;;;;;;;28.78;41.84;99391.69;4469390;32;34028;-66
2021/07/20 11:11:24;;;;;;;17.15;14.75;;;;;;;28.78;41.35;99399.94;4483915;32;34703;-65
2021/07/20 11:13:52;;;;;;;20.88;14.43;;;;;;;28.78;41.34;99394.44;4457916;32;34285;-66
2021/07/20 11:16:21;;;;;;;18.15;14.52;;;;;;;28.77;41.13;99393.59;4482842;32;33897;-66
2021/07/20 11:18:50;;;;;;;17.62;14.25;;;;;;;28.79;41.45;99399.66;4482435;32;33429;-65
2021/07/20 11:21:21;;;;;;;17.02;14.38;;;;;;;28.77;40.94;99390.00;4482632;32;34665;-66
2021/07/20 11:23:48;;;;;;;19.33;13.88;;;;;;;28.80;40.79;99390.31;4482516;32;33977;-65
2021/07/20 11:26:16;;;;;;;21.02;13.38;;;;;;;28.80;40.72;99382.06;4482577;32;33946;-67
2021/07/20 11:28:44;;;;;;;17.75;14.27;;;;;;;28.81;41.02;99388.38;4483427;32;33188;-68
2021/07/20 11:31:20;;;;;;;18.20;14.55;;;;;;;28.81;41.22;99382.88;4483956;32;33998;-68
2021/07/20 11:34:02;;;;;;;16.55;14.07;;;;;;;28.84;41.60;99385.09;4483793;32;34164;-67
2021/07/20 11:36:36;;;;;;;17.25;14.45;;;;;;;28.85;41.51;99387.56;4470055;32;34372;-68
2021/07/20 11:39:04;;;;;;;16.80;13.38;;;;;;;28.82;41.93;99379.88;4483788;32;33492;-67
2021/07/20 11:41:38;;;;;;;18.58;14.25;;;;;;;28.84;41.82;99388.66;4482791;32;34583;-69
2021/07/20 11:44:14;;;;;;;18.27;14.07;;;;;;;28.84;41.22;99382.34;4482073;32;34079;-66
2021/07/20 11:47:00;;;;;;;15.73;13.77;;;;;;;28.84;41.06;99382.34;4456844;32;33785;-66
2021/07/20 11:49:37;;;;;;;16.58;13.40;;;;;;;28.84;41.28;99385.09;4483561;32;33412;-67